sensor_id;sensor_type;location;lat;lon;timestamp;temperature;humidity
20284;DHT22;10301;50.832;4.080;2023-02-28T00:00:35;0.90;1.00
20284;DHT22;10301;50.832;4.080;2023-02-28T00:03:01;0.80;1.00
20284;DHT22;10301;50.832;4.080;2023-02-28T00:05:28;0.70;1.00
20284;DHT22;10301;50.832;4.080;2023-02-28T00:07:54;0.80;1.00
20284;DHT22;10301;50.832;4.080;2023-02-28T00:10:23;0.90;1.00
20284;DHT22;10301;50.832;4.080;2023-02-28T00:12:50;1.00;1.00
20284;DHT22;10301;50.832;4.080;2023-02-28T00:15:16;1.10;1.00
20284;DHT22;10301;50.832;4.080;2023-02-28T00:17:42;1.00;1.00
20284;DHT22;10301;50.832;4.080;2023-02-28T00:20:09;0.90;1.00
20284;DHT22;10301;50.832;4.080;2023-02-28T00:22:42;0.80;1.00
20284;DHT22;10301;50.832;4.080;2023-02-28T00:25:09;0.80;1.00
20284;DHT22;10301;50.832;4.080;2023-02-28T00:27:36;0.80;1.00
20284;DHT22;10301;50.832;4.080;2023-02-28T00:30:02;0.70;1.00
20284;DHT22;10301;50.832;4.080;2023-02-28T00:32:28;0.80;1.00
20284;DHT22;10301;50.832;4.080;2023-02-28T00:34:53;0.80;1.00
20284;DHT22;10301;50.832;4.080;2023-02-28T00:37:19;0.80;1.00
20284;DHT22;10301;50.832;4.080;2023-02-28T00:39:45;0.70;1.00
20284;DHT22;10301;50.832;4.080;2023-02-28T00:42:10;0.60;1.00
20284;DHT22;10301;50.832;4.080;2023-02-28T00:44:36;0.60;1.00
20284;DHT22;10301;50.832;4.080;2023-02-28T00:47:02;0.80;1.00
20284;DHT22;10301;50.832;4.080;2023-02-28T00:49:28;0.80;1.00
20284;DHT22;10301;50.832;4.080;2023-02-28T00:51:54;0.80;1.00
20284;DHT22;10301;50.832;4.080;2023-02-28T00:54:21;0.60;1.00
20284;DHT22;10301;50.832;4.080;2023-02-28T00:56:47;0.50;1.00
20284;DHT22;10301;50.832;4.080;2023-02-28T00:59:14;0.60;1.00
20284;DHT22;10301;50.832;4.080;2023-02-28T01:01:40;0.80;1.00
20284;DHT22;10301;50.832;4.080;2023-02-28T01:04:06;0.80;1.00
20284;DHT22;10301;50.832;4.080;2023-02-28T01:06:32;0.90;1.00
20284;DHT22;10301;50.832;4.080;2023-02-28T01:08:58;0.70;1.00
20284;DHT22;10301;50.832;4.080;2023-02-28T01:11:24;0.70;1.00
20284;DHT22;10301;50.832;4.080;2023-02-28T01:13:49;0.80;1.00
20284;DHT22;10301;50.832;4.080;2023-02-28T01:16:15;0.90;1.00
20284;DHT22;10301;50.832;4.080;2023-02-28T01:18:41;0.80;1.00
20284;DHT22;10301;50.832;4.080;2023-02-28T01:21:10;0.60;1.00
20284;DHT22;10301;50.832;4.080;2023-02-28T01:23:36;0.60;1.00
20284;DHT22;10301;50.832;4.080;2023-02-28T01:26:13;0.50;1.00
20284;DHT22;10301;50.832;4.080;2023-02-28T01:28:39;0.40;1.00
20284;DHT22;10301;50.832;4.080;2023-02-28T01:31:05;0.40;1.00
20284;DHT22;10301;50.832;4.080;2023-02-28T01:33:31;0.40;1.00
20284;DHT22;10301;50.832;4.080;2023-02-28T01:36:23;0.30;1.00
20284;DHT22;10301;50.832;4.080;2023-02-28T01:38:49;0.30;1.00
20284;DHT22;10301;50.832;4.080;2023-02-28T01:46:13;0.50;1.00
20284;DHT22;10301;50.832;4.080;2023-02-28T01:48:45;0.50;1.00
20284;DHT22;10301;50.832;4.080;2023-02-28T01:51:27;0.60;1.00
20284;DHT22;10301;50.832;4.080;2023-02-28T01:53:59;0.80;1.00
20284;DHT22;10301;50.832;4.080;2023-02-28T01:56:30;0.90;1.00
20284;DHT22;10301;50.832;4.080;2023-02-28T01:58:58;1.00;1.00
20284;DHT22;10301;50.832;4.080;2023-02-28T02:01:26;1.00;1.00
20284;DHT22;10301;50.832;4.080;2023-02-28T02:03:59;0.80;1.00
20284;DHT22;10301;50.832;4.080;2023-02-28T02:06:45;0.90;1.00
20284;DHT22;10301;50.832;4.080;2023-02-28T02:09:12;0.70;1.00
20284;DHT22;10301;50.832;4.080;2023-02-28T02:11:40;0.50;1.00
20284;DHT22;10301;50.832;4.080;2023-02-28T02:16:55;0.30;1.00
20284;DHT22;10301;50.832;4.080;2023-02-28T02:36:25;0.50;1.00
20284;DHT22;10301;50.832;4.080;2023-02-28T02:39:21;0.60;1.00
20284;DHT22;10301;50.832;4.080;2023-02-28T02:41:53;0.70;1.00
20284;DHT22;10301;50.832;4.080;2023-02-28T02:44:27;0.70;1.00
20284;DHT22;10301;50.832;4.080;2023-02-28T02:46:59;0.80;1.00
20284;DHT22;10301;50.832;4.080;2023-02-28T02:49:31;0.70;1.00
20284;DHT22;10301;50.832;4.080;2023-02-28T02:52:02;0.60;1.00
20284;DHT22;10301;50.832;4.080;2023-02-28T02:54:31;0.40;1.00
20284;DHT22;10301;50.832;4.080;2023-02-28T02:57:04;0.20;1.00
20284;DHT22;10301;50.832;4.080;2023-02-28T02:59:30;0.20;1.00
20284;DHT22;10301;50.832;4.080;2023-02-28T03:02:00;0.10;1.00
20284;DHT22;10301;50.832;4.080;2023-02-28T03:04:31;0.10;1.00
20284;DHT22;10301;50.832;4.080;2023-02-28T03:06:58;0.10;1.00
20284;DHT22;10301;50.832;4.080;2023-02-28T03:09:25;0.40;1.00
20284;DHT22;10301;50.832;4.080;2023-02-28T03:11:54;0.40;1.00
20284;DHT22;10301;50.832;4.080;2023-02-28T03:14:56;0.30;1.00
20284;DHT22;10301;50.832;4.080;2023-02-28T03:31:12;0.30;1.00
20284;DHT22;10301;50.832;4.080;2023-02-28T03:33:45;0.20;1.00
20284;DHT22;10301;50.832;4.080;2023-02-28T03:36:21;0.10;1.00
20284;DHT22;10301;50.832;4.080;2023-02-28T03:39:04;0.10;1.00
20284;DHT22;10301;50.832;4.080;2023-02-28T03:41:42;0.20;1.00
20284;DHT22;10301;50.832;4.080;2023-02-28T03:44:22;0.20;1.00
20284;DHT22;10301;50.832;4.080;2023-02-28T03:46:57;0.20;1.00
20284;DHT22;10301;50.832;4.080;2023-02-28T03:49:30;0.30;1.00
20284;DHT22;10301;50.832;4.080;2023-02-28T03:51:58;0.30;1.00
20284;DHT22;10301;50.832;4.080;2023-02-28T03:54:29;0.30;1.00
20284;DHT22;10301;50.832;4.080;2023-02-28T04:00:08;0.50;1.00
20284;DHT22;10301;50.832;4.080;2023-02-28T04:02:36;0.60;1.00
20284;DHT22;10301;50.832;4.080;2023-02-28T04:05:01;0.30;1.00
20284;DHT22;10301;50.832;4.080;2023-02-28T04:07:30;0.20;1.00
20284;DHT22;10301;50.832;4.080;2023-02-28T04:09:56;0.00;1.00
20284;DHT22;10301;50.832;4.080;2023-02-28T04:12:22;0.00;1.00
20284;DHT22;10301;50.832;4.080;2023-02-28T04:14:49;-0.10;1.00
20284;DHT22;10301;50.832;4.080;2023-02-28T04:17:15;0.00;1.00
20284;DHT22;10301;50.832;4.080;2023-02-28T04:19:41;0.20;1.00
20284;DHT22;10301;50.832;4.080;2023-02-28T04:22:08;0.20;1.00
20284;DHT22;10301;50.832;4.080;2023-02-28T04:24:34;0.20;1.00
20284;DHT22;10301;50.832;4.080;2023-02-28T04:27:00;0.00;1.00
20284;DHT22;10301;50.832;4.080;2023-02-28T04:29:30;0.00;1.00
20284;DHT22;10301;50.832;4.080;2023-02-28T04:32:00;0.00;1.00
20284;DHT22;10301;50.832;4.080;2023-02-28T04:34:27;0.00;1.00
20284;DHT22;10301;50.832;4.080;2023-02-28T04:36:54;0.00;1.00
20284;DHT22;10301;50.832;4.080;2023-02-28T04:39:21;-0.10;1.00
20284;DHT22;10301;50.832;4.080;2023-02-28T04:41:47;-0.10;1.00
20284;DHT22;10301;50.832;4.080;2023-02-28T04:44:13;-0.20;1.00
20284;DHT22;10301;50.832;4.080;2023-02-28T04:46:39;-0.30;1.00
20284;DHT22;10301;50.832;4.080;2023-02-28T04:49:05;0.00;1.00
20284;DHT22;10301;50.832;4.080;2023-02-28T04:51:31;-0.10;1.00
20284;DHT22;10301;50.832;4.080;2023-02-28T04:53:56;-0.20;1.00
20284;DHT22;10301;50.832;4.080;2023-02-28T04:56:22;-0.20;1.00
20284;DHT22;10301;50.832;4.080;2023-02-28T04:58:48;-0.10;1.00
20284;DHT22;10301;50.832;4.080;2023-02-28T05:01:31;0.00;1.00
20284;DHT22;10301;50.832;4.080;2023-02-28T05:03:58;0.10;1.00
20284;DHT22;10301;50.832;4.080;2023-02-28T05:06:26;0.30;1.00
20284;DHT22;10301;50.832;4.080;2023-02-28T05:08:52;0.30;1.00
20284;DHT22;10301;50.832;4.080;2023-02-28T05:11:23;0.40;1.00
20284;DHT22;10301;50.832;4.080;2023-02-28T05:13:50;0.60;1.00
20284;DHT22;10301;50.832;4.080;2023-02-28T05:16:16;0.50;1.00
20284;DHT22;10301;50.832;4.080;2023-02-28T05:18:41;0.60;1.00
20284;DHT22;10301;50.832;4.080;2023-02-28T05:21:28;0.60;1.00
20284;DHT22;10301;50.832;4.080;2023-02-28T05:23:56;0.60;1.00
20284;DHT22;10301;50.832;4.080;2023-02-28T05:26:22;0.80;1.00
20284;DHT22;10301;50.832;4.080;2023-02-28T05:28:47;0.80;1.00
20284;DHT22;10301;50.832;4.080;2023-02-28T05:31:13;1.00;1.00
20284;DHT22;10301;50.832;4.080;2023-02-28T05:33:39;1.00;1.00
20284;DHT22;10301;50.832;4.080;2023-02-28T05:36:05;1.30;1.00
20284;DHT22;10301;50.832;4.080;2023-02-28T05:38:31;1.50;1.00
20284;DHT22;10301;50.832;4.080;2023-02-28T05:40:57;1.20;1.00
20284;DHT22;10301;50.832;4.080;2023-02-28T05:43:23;1.20;1.00
20284;DHT22;10301;50.832;4.080;2023-02-28T05:45:49;1.20;1.00
20284;DHT22;10301;50.832;4.080;2023-02-28T05:48:14;1.30;1.00
20284;DHT22;10301;50.832;4.080;2023-02-28T05:50:40;1.40;1.00
20284;DHT22;10301;50.832;4.080;2023-02-28T05:53:08;1.30;1.00
20284;DHT22;10301;50.832;4.080;2023-02-28T05:55:33;1.60;1.00
20284;DHT22;10301;50.832;4.080;2023-02-28T05:58:01;1.60;1.00
20284;DHT22;10301;50.832;4.080;2023-02-28T06:00:26;1.60;1.00
20284;DHT22;10301;50.832;4.080;2023-02-28T06:02:53;1.80;1.00
20284;DHT22;10301;50.832;4.080;2023-02-28T06:05:21;1.70;1.00
20284;DHT22;10301;50.832;4.080;2023-02-28T06:07:47;1.60;1.00
20284;DHT22;10301;50.832;4.080;2023-02-28T06:10:13;1.50;1.00
20284;DHT22;10301;50.832;4.080;2023-02-28T06:12:40;1.40;1.00
20284;DHT22;10301;50.832;4.080;2023-02-28T06:15:09;1.50;1.00
20284;DHT22;10301;50.832;4.080;2023-02-28T06:17:37;1.60;1.00
20284;DHT22;10301;50.832;4.080;2023-02-28T06:20:03;1.70;1.00
20284;DHT22;10301;50.832;4.080;2023-02-28T06:22:28;1.80;1.00
20284;DHT22;10301;50.832;4.080;2023-02-28T06:24:54;1.80;1.00
20284;DHT22;10301;50.832;4.080;2023-02-28T06:27:21;1.50;1.00
20284;DHT22;10301;50.832;4.080;2023-02-28T06:29:47;1.50;1.00
20284;DHT22;10301;50.832;4.080;2023-02-28T06:32:13;1.60;1.00
20284;DHT22;10301;50.832;4.080;2023-02-28T06:34:38;1.40;1.00
20284;DHT22;10301;50.832;4.080;2023-02-28T06:37:04;1.40;1.00
20284;DHT22;10301;50.832;4.080;2023-02-28T06:39:30;1.40;1.00
20284;DHT22;10301;50.832;4.080;2023-02-28T06:41:57;1.40;1.00
20284;DHT22;10301;50.832;4.080;2023-02-28T06:44:23;1.40;1.00
20284;DHT22;10301;50.832;4.080;2023-02-28T06:46:49;1.70;1.00
20284;DHT22;10301;50.832;4.080;2023-02-28T06:49:15;1.70;1.00
20284;DHT22;10301;50.832;4.080;2023-02-28T06:51:43;1.50;1.00
20284;DHT22;10301;50.832;4.080;2023-02-28T06:54:13;1.40;1.00
20284;DHT22;10301;50.832;4.080;2023-02-28T06:56:38;1.50;1.00
20284;DHT22;10301;50.832;4.080;2023-02-28T06:59:05;1.50;1.00
20284;DHT22;10301;50.832;4.080;2023-02-28T07:01:31;1.50;1.00
20284;DHT22;10301;50.832;4.080;2023-02-28T07:03:58;1.40;1.00
20284;DHT22;10301;50.832;4.080;2023-02-28T07:06:25;1.60;1.00
20284;DHT22;10301;50.832;4.080;2023-02-28T07:08:52;1.70;1.00
20284;DHT22;10301;50.832;4.080;2023-02-28T07:11:20;1.60;1.00
20284;DHT22;10301;50.832;4.080;2023-02-28T07:13:48;1.60;1.00
20284;DHT22;10301;50.832;4.080;2023-02-28T07:16:14;1.70;1.00
20284;DHT22;10301;50.832;4.080;2023-02-28T07:18:39;1.80;1.00
20284;DHT22;10301;50.832;4.080;2023-02-28T07:21:08;1.90;1.00
20284;DHT22;10301;50.832;4.080;2023-02-28T07:23:34;1.80;1.00
20284;DHT22;10301;50.832;4.080;2023-02-28T07:26:00;1.90;1.00
20284;DHT22;10301;50.832;4.080;2023-02-28T07:28:25;2.10;1.00
20284;DHT22;10301;50.832;4.080;2023-02-28T07:30:51;2.20;1.00
20284;DHT22;10301;50.832;4.080;2023-02-28T07:33:17;2.40;1.00
20284;DHT22;10301;50.832;4.080;2023-02-28T07:35:43;2.60;1.00
20284;DHT22;10301;50.832;4.080;2023-02-28T07:38:09;2.50;1.00
20284;DHT22;10301;50.832;4.080;2023-02-28T07:40:36;2.40;1.00
20284;DHT22;10301;50.832;4.080;2023-02-28T07:43:02;2.40;1.00
20284;DHT22;10301;50.832;4.080;2023-02-28T07:45:29;2.70;1.00
20284;DHT22;10301;50.832;4.080;2023-02-28T07:47:55;3.00;1.00
20284;DHT22;10301;50.832;4.080;2023-02-28T07:50:21;3.10;1.00
20284;DHT22;10301;50.832;4.080;2023-02-28T07:52:47;3.20;99.90
20284;DHT22;10301;50.832;4.080;2023-02-28T07:55:13;3.00;99.90
20284;DHT22;10301;50.832;4.080;2023-02-28T07:57:40;2.90;99.90
20284;DHT22;10301;50.832;4.080;2023-02-28T08:00:08;3.00;1.00
20284;DHT22;10301;50.832;4.080;2023-02-28T08:02:38;3.10;99.90
20284;DHT22;10301;50.832;4.080;2023-02-28T08:05:04;3.40;1.00
20284;DHT22;10301;50.832;4.080;2023-02-28T08:07:30;3.50;99.90
20284;DHT22;10301;50.832;4.080;2023-02-28T08:09:56;3.40;99.90
20284;DHT22;10301;50.832;4.080;2023-02-28T08:12:21;3.60;1.00
20284;DHT22;10301;50.832;4.080;2023-02-28T08:14:47;3.80;1.00
20284;DHT22;10301;50.832;4.080;2023-02-28T08:17:13;4.00;1.00
20284;DHT22;10301;50.832;4.080;2023-02-28T08:19:38;4.00;99.90
20284;DHT22;10301;50.832;4.080;2023-02-28T08:22:04;4.00;60.70
20284;DHT22;10301;50.832;4.080;2023-02-28T08:24:30;4.10;99.90
20284;DHT22;10301;50.832;4.080;2023-02-28T08:26:56;3.80;99.90
20284;DHT22;10301;50.832;4.080;2023-02-28T08:29:21;3.80;1.00
20284;DHT22;10301;50.832;4.080;2023-02-28T08:31:47;3.50;1.00
20284;DHT22;10301;50.832;4.080;2023-02-28T08:34:15;3.60;1.00
20284;DHT22;10301;50.832;4.080;2023-02-28T08:36:41;4.00;99.90
20284;DHT22;10301;50.832;4.080;2023-02-28T08:39:08;4.10;99.90
20284;DHT22;10301;50.832;4.080;2023-02-28T08:41:34;4.00;1.00
20284;DHT22;10301;50.832;4.080;2023-02-28T08:44:00;3.90;1.00
20284;DHT22;10301;50.832;4.080;2023-02-28T08:46:26;3.90;21.90
20284;DHT22;10301;50.832;4.080;2023-02-28T08:48:56;3.90;99.90
20284;DHT22;10301;50.832;4.080;2023-02-28T08:51:26;3.80;99.90
20284;DHT22;10301;50.832;4.080;2023-02-28T08:53:53;4.00;1.00
20284;DHT22;10301;50.832;4.080;2023-02-28T08:56:19;4.20;99.90
20284;DHT22;10301;50.832;4.080;2023-02-28T08:58:47;4.10;1.00
20284;DHT22;10301;50.832;4.080;2023-02-28T09:01:13;4.40;1.00
20284;DHT22;10301;50.832;4.080;2023-02-28T09:03:41;4.70;1.00
20284;DHT22;10301;50.832;4.080;2023-02-28T09:06:08;4.80;1.00
20284;DHT22;10301;50.832;4.080;2023-02-28T09:08:34;5.00;1.00
20284;DHT22;10301;50.832;4.080;2023-02-28T09:11:00;4.70;99.90
20284;DHT22;10301;50.832;4.080;2023-02-28T09:13:27;4.80;1.00
20284;DHT22;10301;50.832;4.080;2023-02-28T09:15:53;4.50;99.90
20284;DHT22;10301;50.832;4.080;2023-02-28T09:18:20;4.60;1.00
20284;DHT22;10301;50.832;4.080;2023-02-28T09:20:46;4.90;1.00
20284;DHT22;10301;50.832;4.080;2023-02-28T09:23:12;4.90;1.00
20284;DHT22;10301;50.832;4.080;2023-02-28T09:25:48;5.40;1.00
20284;DHT22;10301;50.832;4.080;2023-02-28T09:28:14;5.70;78.20
20284;DHT22;10301;50.832;4.080;2023-02-28T09:30:44;5.70;1.00
20284;DHT22;10301;50.832;4.080;2023-02-28T09:33:11;5.70;99.90
20284;DHT22;10301;50.832;4.080;2023-02-28T09:35:36;5.60;99.90
20284;DHT22;10301;50.832;4.080;2023-02-28T09:38:03;5.50;5.80
20284;DHT22;10301;50.832;4.080;2023-02-28T09:40:29;5.40;1.00
20284;DHT22;10301;50.832;4.080;2023-02-28T09:42:57;5.60;1.00
20284;DHT22;10301;50.832;4.080;2023-02-28T09:45:32;5.50;1.00
20284;DHT22;10301;50.832;4.080;2023-02-28T09:48:20;5.40;1.00
20284;DHT22;10301;50.832;4.080;2023-02-28T09:50:52;5.50;1.00
20284;DHT22;10301;50.832;4.080;2023-02-28T09:55:48;5.30;1.00
20284;DHT22;10301;50.832;4.080;2023-02-28T09:58:37;5.10;1.00
20284;DHT22;10301;50.832;4.080;2023-02-28T10:01:17;5.00;1.00
20284;DHT22;10301;50.832;4.080;2023-02-28T10:06:51;4.80;1.00
20284;DHT22;10301;50.832;4.080;2023-02-28T10:09:21;4.50;1.00
20284;DHT22;10301;50.832;4.080;2023-02-28T10:11:50;4.50;99.90
20284;DHT22;10301;50.832;4.080;2023-02-28T10:14:29;4.60;98.90
20284;DHT22;10301;50.832;4.080;2023-02-28T10:19:24;4.60;36.40
20284;DHT22;10301;50.832;4.080;2023-02-28T10:21:57;4.70;20.40
20284;DHT22;10301;50.832;4.080;2023-02-28T10:24:34;4.80;1.00
20284;DHT22;10301;50.832;4.080;2023-02-28T10:27:06;4.80;1.00
20284;DHT22;10301;50.832;4.080;2023-02-28T10:29:36;4.80;99.90
20284;DHT22;10301;50.832;4.080;2023-02-28T10:32:04;4.90;1.00
20284;DHT22;10301;50.832;4.080;2023-02-28T10:34:30;5.00;1.00
20284;DHT22;10301;50.832;4.080;2023-02-28T10:36:56;4.90;1.00
20284;DHT22;10301;50.832;4.080;2023-02-28T10:39:45;5.00;1.00
20284;DHT22;10301;50.832;4.080;2023-02-28T10:42:29;5.10;1.00
20284;DHT22;10301;50.832;4.080;2023-02-28T10:47:34;4.90;1.00
20284;DHT22;10301;50.832;4.080;2023-02-28T10:50:02;4.80;1.00
20284;DHT22;10301;50.832;4.080;2023-02-28T10:52:39;4.90;1.00
20284;DHT22;10301;50.832;4.080;2023-02-28T10:57:44;4.90;1.00
20284;DHT22;10301;50.832;4.080;2023-02-28T11:00:22;4.80;1.00
20284;DHT22;10301;50.832;4.080;2023-02-28T11:02:48;4.80;1.00
20284;DHT22;10301;50.832;4.080;2023-02-28T11:05:33;4.80;1.00
20284;DHT22;10301;50.832;4.080;2023-02-28T11:08:14;4.90;1.00
20284;DHT22;10301;50.832;4.080;2023-02-28T11:10:46;4.80;1.00
20284;DHT22;10301;50.832;4.080;2023-02-28T11:13:20;4.80;1.00
20284;DHT22;10301;50.832;4.080;2023-02-28T11:15:54;4.90;1.00
20284;DHT22;10301;50.832;4.080;2023-02-28T11:18:54;5.00;1.00
20284;DHT22;10301;50.832;4.080;2023-02-28T11:23:47;5.00;1.00
20284;DHT22;10301;50.832;4.080;2023-02-28T11:26:15;4.90;1.00
20284;DHT22;10301;50.832;4.080;2023-02-28T11:28:42;4.90;1.00
20284;DHT22;10301;50.832;4.080;2023-02-28T11:31:15;4.80;1.00
20284;DHT22;10301;50.832;4.080;2023-02-28T11:33:52;4.70;1.00
20284;DHT22;10301;50.832;4.080;2023-02-28T11:36:30;4.70;1.00
20284;DHT22;10301;50.832;4.080;2023-02-28T11:38:59;4.70;1.00
20284;DHT22;10301;50.832;4.080;2023-02-28T11:42:03;4.80;1.00
20284;DHT22;10301;50.832;4.080;2023-02-28T11:47:35;5.30;1.00
20284;DHT22;10301;50.832;4.080;2023-02-28T11:52:48;5.30;1.00
20284;DHT22;10301;50.832;4.080;2023-02-28T11:55:27;5.20;1.00
20284;DHT22;10301;50.832;4.080;2023-02-28T12:00:44;5.10;1.00
20284;DHT22;10301;50.832;4.080;2023-02-28T12:06:30;5.20;1.00
20284;DHT22;10301;50.832;4.080;2023-02-28T12:09:34;5.20;1.00
20284;DHT22;10301;50.832;4.080;2023-02-28T12:27:56;5.20;1.00
20284;DHT22;10301;50.832;4.080;2023-02-28T12:30:25;5.40;1.00
20284;DHT22;10301;50.832;4.080;2023-02-28T12:33:04;5.30;1.00
20284;DHT22;10301;50.832;4.080;2023-02-28T12:35:38;5.30;1.00
20284;DHT22;10301;50.832;4.080;2023-02-28T12:41:05;5.40;1.00
20284;DHT22;10301;50.832;4.080;2023-02-28T12:43:42;5.40;1.00
20284;DHT22;10301;50.832;4.080;2023-02-28T12:46:23;5.40;1.00
20284;DHT22;10301;50.832;4.080;2023-02-28T12:49:38;5.50;1.00
20284;DHT22;10301;50.832;4.080;2023-02-28T12:52:05;5.70;1.00
20284;DHT22;10301;50.832;4.080;2023-02-28T12:59:56;6.00;1.00
20284;DHT22;10301;50.832;4.080;2023-02-28T13:02:33;6.10;1.00
20284;DHT22;10301;50.832;4.080;2023-02-28T13:10:53;5.90;1.00
20284;DHT22;10301;50.832;4.080;2023-02-28T13:13:25;6.00;1.00
20284;DHT22;10301;50.832;4.080;2023-02-28T13:16:10;6.00;1.00
20284;DHT22;10301;50.832;4.080;2023-02-28T13:18:46;5.80;1.00
20284;DHT22;10301;50.832;4.080;2023-02-28T13:21:30;5.80;1.00
20284;DHT22;10301;50.832;4.080;2023-02-28T13:24:09;5.60;1.00
20284;DHT22;10301;50.832;4.080;2023-02-28T13:34:32;5.30;1.00
20284;DHT22;10301;50.832;4.080;2023-02-28T13:39:51;5.60;1.00
20284;DHT22;10301;50.832;4.080;2023-02-28T13:47:51;5.70;1.00
20284;DHT22;10301;50.832;4.080;2023-02-28T13:50:29;5.90;99.90
20284;DHT22;10301;50.832;4.080;2023-02-28T13:53:03;5.80;1.00
20284;DHT22;10301;50.832;4.080;2023-02-28T14:07:30;5.80;99.90
20284;DHT22;10301;50.832;4.080;2023-02-28T14:10:03;5.80;99.90
20284;DHT22;10301;50.832;4.080;2023-02-28T14:15:47;5.90;99.90
20284;DHT22;10301;50.832;4.080;2023-02-28T14:18:34;5.80;99.90
20284;DHT22;10301;50.832;4.080;2023-02-28T14:26:56;6.10;99.90
20284;DHT22;10301;50.832;4.080;2023-02-28T14:35:16;6.10;99.90
20284;DHT22;10301;50.832;4.080;2023-02-28T14:37:37;6.10;99.90
20284;DHT22;10301;50.832;4.080;2023-02-28T14:40:11;6.30;99.90
20284;DHT22;10301;50.832;4.080;2023-02-28T14:42:38;6.40;99.90
20284;DHT22;10301;50.832;4.080;2023-02-28T14:45:18;6.20;99.90
20284;DHT22;10301;50.832;4.080;2023-02-28T14:47:44;6.10;99.90
20284;DHT22;10301;50.832;4.080;2023-02-28T14:50:28;6.10;99.90
20284;DHT22;10301;50.832;4.080;2023-02-28T14:52:55;6.10;99.90
20284;DHT22;10301;50.832;4.080;2023-02-28T14:55:28;6.10;99.90
20284;DHT22;10301;50.832;4.080;2023-02-28T14:57:57;6.10;99.90
20284;DHT22;10301;50.832;4.080;2023-02-28T15:00:31;5.90;99.90
20284;DHT22;10301;50.832;4.080;2023-02-28T15:02:58;6.00;99.90
20284;DHT22;10301;50.832;4.080;2023-02-28T15:05:31;6.00;99.90
20284;DHT22;10301;50.832;4.080;2023-02-28T15:08:06;5.90;99.90
20284;DHT22;10301;50.832;4.080;2023-02-28T15:10:33;5.90;99.90
20284;DHT22;10301;50.832;4.080;2023-02-28T15:13:07;6.00;99.90
20284;DHT22;10301;50.832;4.080;2023-02-28T15:21:07;6.00;99.90
20284;DHT22;10301;50.832;4.080;2023-02-28T15:23:36;6.00;1.00
20284;DHT22;10301;50.832;4.080;2023-02-28T15:26:03;6.20;99.90
20284;DHT22;10301;50.832;4.080;2023-02-28T15:28:30;6.10;99.90
20284;DHT22;10301;50.832;4.080;2023-02-28T15:30:59;6.00;99.90
20284;DHT22;10301;50.832;4.080;2023-02-28T15:33:27;5.90;1.00
20284;DHT22;10301;50.832;4.080;2023-02-28T15:38:36;5.70;99.90
20284;DHT22;10301;50.832;4.080;2023-02-28T15:41:03;5.70;1.00
20284;DHT22;10301;50.832;4.080;2023-02-28T15:43:35;5.60;1.00
20284;DHT22;10301;50.832;4.080;2023-02-28T15:48:30;5.80;1.00
20284;DHT22;10301;50.832;4.080;2023-02-28T15:51:02;5.80;1.00
20284;DHT22;10301;50.832;4.080;2023-02-28T15:53:33;5.80;1.00
20284;DHT22;10301;50.832;4.080;2023-02-28T15:56:16;5.90;1.00
20284;DHT22;10301;50.832;4.080;2023-02-28T15:58:44;5.90;1.00
20284;DHT22;10301;50.832;4.080;2023-02-28T16:01:26;5.90;1.00
20284;DHT22;10301;50.832;4.080;2023-02-28T16:03:57;5.90;1.00
20284;DHT22;10301;50.832;4.080;2023-02-28T16:08:51;6.00;1.00
20284;DHT22;10301;50.832;4.080;2023-02-28T16:11:20;6.10;1.00
20284;DHT22;10301;50.832;4.080;2023-02-28T16:13:46;6.00;1.00
20284;DHT22;10301;50.832;4.080;2023-02-28T16:16:16;5.90;1.00
20284;DHT22;10301;50.832;4.080;2023-02-28T16:18:42;5.60;1.00
20284;DHT22;10301;50.832;4.080;2023-02-28T16:21:09;5.50;1.00
20284;DHT22;10301;50.832;4.080;2023-02-28T16:23:34;5.60;1.00
20284;DHT22;10301;50.832;4.080;2023-02-28T16:26:00;5.70;1.00
20284;DHT22;10301;50.832;4.080;2023-02-28T16:28:37;5.80;1.00
20284;DHT22;10301;50.832;4.080;2023-02-28T16:31:06;5.90;1.00
20284;DHT22;10301;50.832;4.080;2023-02-28T16:33:33;5.80;1.00
20284;DHT22;10301;50.832;4.080;2023-02-28T16:36:00;5.80;1.00
20284;DHT22;10301;50.832;4.080;2023-02-28T16:38:28;5.70;1.00
20284;DHT22;10301;50.832;4.080;2023-02-28T16:40:57;5.60;1.00
20284;DHT22;10301;50.832;4.080;2023-02-28T16:43:26;5.50;1.00
20284;DHT22;10301;50.832;4.080;2023-02-28T16:45:56;5.40;1.00
20284;DHT22;10301;50.832;4.080;2023-02-28T16:48:24;5.20;1.00
20284;DHT22;10301;50.832;4.080;2023-02-28T16:50:50;5.10;1.00
20284;DHT22;10301;50.832;4.080;2023-02-28T16:53:16;5.20;1.00
20284;DHT22;10301;50.832;4.080;2023-02-28T16:55:42;5.20;1.00
20284;DHT22;10301;50.832;4.080;2023-02-28T16:58:14;5.10;1.00
20284;DHT22;10301;50.832;4.080;2023-02-28T17:00:40;5.10;1.00
20284;DHT22;10301;50.832;4.080;2023-02-28T17:03:25;5.10;1.00
20284;DHT22;10301;50.832;4.080;2023-02-28T17:05:51;5.00;1.00
20284;DHT22;10301;50.832;4.080;2023-02-28T17:08:17;5.10;1.00
20284;DHT22;10301;50.832;4.080;2023-02-28T17:10:43;5.00;1.00
20284;DHT22;10301;50.832;4.080;2023-02-28T17:13:08;4.90;1.00
20284;DHT22;10301;50.832;4.080;2023-02-28T17:15:35;4.70;1.00
20284;DHT22;10301;50.832;4.080;2023-02-28T17:18:02;4.70;1.00
20284;DHT22;10301;50.832;4.080;2023-02-28T17:20:28;4.70;1.00
20284;DHT22;10301;50.832;4.080;2023-02-28T17:22:54;4.70;1.00
20284;DHT22;10301;50.832;4.080;2023-02-28T17:25:21;4.60;1.00
20284;DHT22;10301;50.832;4.080;2023-02-28T17:27:47;4.70;1.00
20284;DHT22;10301;50.832;4.080;2023-02-28T17:30:23;4.80;1.00
20284;DHT22;10301;50.832;4.080;2023-02-28T17:32:49;4.70;1.00
20284;DHT22;10301;50.832;4.080;2023-02-28T17:35:15;4.70;1.00
20284;DHT22;10301;50.832;4.080;2023-02-28T17:37:41;4.60;1.00
20284;DHT22;10301;50.832;4.080;2023-02-28T17:40:13;4.60;1.00
20284;DHT22;10301;50.832;4.080;2023-02-28T17:42:39;4.50;1.00
20284;DHT22;10301;50.832;4.080;2023-02-28T17:45:05;4.40;1.00
20284;DHT22;10301;50.832;4.080;2023-02-28T17:47:31;4.50;1.00
20284;DHT22;10301;50.832;4.080;2023-02-28T17:49:57;4.50;1.00
20284;DHT22;10301;50.832;4.080;2023-02-28T17:52:22;4.50;1.00
20284;DHT22;10301;50.832;4.080;2023-02-28T17:54:48;4.50;1.00
20284;DHT22;10301;50.832;4.080;2023-02-28T17:57:16;4.50;1.00
20284;DHT22;10301;50.832;4.080;2023-02-28T17:59:43;4.30;1.00
20284;DHT22;10301;50.832;4.080;2023-02-28T18:02:11;4.10;99.90
20284;DHT22;10301;50.832;4.080;2023-02-28T18:04:37;4.00;99.90
20284;DHT22;10301;50.832;4.080;2023-02-28T18:07:03;3.70;99.90
20284;DHT22;10301;50.832;4.080;2023-02-28T18:09:28;3.70;99.90
20284;DHT22;10301;50.832;4.080;2023-02-28T18:11:55;3.80;99.90
20284;DHT22;10301;50.832;4.080;2023-02-28T18:14:23;3.80;99.90
20284;DHT22;10301;50.832;4.080;2023-02-28T18:16:51;3.90;99.90
20284;DHT22;10301;50.832;4.080;2023-02-28T18:19:17;3.90;99.90
20284;DHT22;10301;50.832;4.080;2023-02-28T18:21:45;3.90;99.90
20284;DHT22;10301;50.832;4.080;2023-02-28T18:24:12;3.90;99.90
20284;DHT22;10301;50.832;4.080;2023-02-28T18:26:39;3.90;99.90
20284;DHT22;10301;50.832;4.080;2023-02-28T18:29:05;3.90;99.90
20284;DHT22;10301;50.832;4.080;2023-02-28T18:31:32;3.90;99.90
20284;DHT22;10301;50.832;4.080;2023-02-28T18:33:58;3.70;1.00
20284;DHT22;10301;50.832;4.080;2023-02-28T18:36:24;3.60;1.00
20284;DHT22;10301;50.832;4.080;2023-02-28T18:38:50;3.60;1.00
20284;DHT22;10301;50.832;4.080;2023-02-28T18:41:17;3.50;1.00
20284;DHT22;10301;50.832;4.080;2023-02-28T18:43:45;3.50;1.00
20284;DHT22;10301;50.832;4.080;2023-02-28T18:46:13;3.60;1.00
20284;DHT22;10301;50.832;4.080;2023-02-28T18:48:39;3.50;1.00